Sunday, September 23, 2018, 4:30 AM GMT
Back to Local

CWNC, Cobourg, Ont.

Location: , , Canada Lat: 43.95
Local Time: 4:30 AM GMT ( 4:30 GMT) Lon: -78.167
Time Zone: GMT Elev: 255 ft

Show me the last for .
Show Coded

Time T Td Feel RH Dir Speed Gust Alt SLP Vis Weather Sky Remarks
2018-09-23 04:00 48 43 46 83 10° 5 - - 30.23 0 None
2018-09-23 03:00 49 44 48 82 10° 3 - - 30.23 0 None
2018-09-23 02:00 50 45 48 82 10° 5 - - 30.23 0 None
2018-09-23 01:00 52 45 - 78 10° 3 - - 30.24 0 None
2018-09-23 00:00 57 47 - 67 250° 6 - - 30.24 0 None
2018-09-22 23:00 57 46 - 64 230° 6 - - 30.23 0 None
2018-09-22 22:00 58 42 - 55 230° 7 - - 30.23 0 None
2018-09-22 21:00 58 43 - 57 220° 7 - - 30.23 0 None
2018-09-22 20:00 56 43 - 60 200° 8 - - 30.24 0 None
2018-09-22 19:00 58 44 - 59 190° 7 - - 30.24 0 None
2018-09-22 18:00 61 42 - 50 180° 3 - - 30.26 0 None
2018-09-22 17:00 56 39 - 52 20° 5 - - 30.28 0 None
2018-09-22 16:00 56 40 - 55 40° 3 - - 30.29 0 None
2018-09-22 15:00 55 41 - 59 20° 5 - - 30.28 0 None
2018-09-22 14:00 55 39 - 56 40° 8 - - 30.27 0 None
2018-09-22 13:00 54 42 - 63 10° 6 - - 30.25 0 None
2018-09-22 12:00 53 43 - 69 310° 2 - - 30.24 0 None
2018-09-22 11:00 50 42 - 71 - Calm - - 30.21 0 None
2018-09-22 10:00 53 42 - 67 10° 3 - - 30.17 0 None
2018-09-22 09:00 55 44 - 66 320° 6 - - 30.11 0 None
2018-09-22 08:00 55 47 - 72 290° 5 - - 30.07 0 None
2018-09-22 07:00 56 46 - 66 320° 10 21 - 30.03 0 Peak wind: 20 mph (18 kts) from 310° at 51 min
2018-09-22 06:00 58 46 - 64 310° 9 - - 29.99 0 Peak wind: 29 mph (26 kts) from 310° at 17 min
2018-09-22 05:00 59 46 - 60 320° 15 26 - 29.96 0 Peak wind: 32 mph (28 kts) from 330° at 25 min

Support USWX by starting your Amazon purchase here.